createdAt,value
2023-05-24T00:02:50.251Z,8.50
2023-05-24T00:07:57.973Z,6.30
2023-05-24T00:13:05.604Z,7.00
2023-05-24T00:18:13.731Z,6.90
2023-05-24T00:23:22.282Z,8.70
2023-05-24T00:28:29.947Z,5.60
2023-05-24T00:33:39.130Z,5.80
2023-05-24T00:38:46.875Z,8.50
2023-05-24T00:43:56.847Z,5.30
2023-05-24T00:49:06.151Z,6.00
2023-05-24T00:54:15.520Z,7.90
2023-05-24T00:59:24.197Z,6.00
2023-05-24T01:04:33.253Z,6.20
2023-05-24T01:09:56.054Z,7.90
2023-05-24T01:15:11.531Z,6.70
2023-05-24T01:20:23.095Z,6.30
2023-05-24T01:25:49.461Z,6.50
2023-05-24T01:30:58.329Z,6.20
2023-05-24T01:36:07.210Z,8.50
2023-05-24T01:41:24.418Z,7.00
2023-05-24T01:46:39.867Z,5.10
2023-05-24T01:51:56.361Z,7.60
2023-05-24T01:57:10.338Z,6.30
2023-05-24T02:02:18.473Z,7.00
2023-05-24T02:07:28.237Z,9.70
2023-05-24T02:12:36.060Z,8.10
2023-05-24T02:17:44.212Z,6.90
2023-05-24T02:22:52.065Z,7.40
2023-05-24T02:27:59.743Z,9.10
2023-05-24T02:33:08.216Z,7.60
2023-05-24T02:38:17.391Z,7.10
2023-05-24T02:43:26.093Z,7.30
2023-05-24T02:48:34.440Z,6.40
2023-05-24T02:53:44.051Z,6.40
2023-05-24T02:58:51.578Z,6.70
2023-05-24T03:03:59.138Z,7.50
2023-05-24T03:09:06.720Z,6.50
2023-05-24T03:14:15.354Z,6.50
2023-05-24T03:19:23.015Z,6.50
2023-05-24T03:24:30.475Z,7.30
2023-05-24T03:29:38.317Z,7.80
2023-05-24T03:34:46.080Z,9.80
2023-05-24T03:39:54.341Z,7.80
2023-05-24T03:45:39.257Z,7.40
2023-05-24T03:50:48.375Z,5.80
2023-05-24T03:55:56.492Z,7.10
2023-05-24T04:01:03.938Z,6.30
2023-05-24T04:06:11.837Z,4.60
2023-05-24T04:11:20.274Z,6.70
2023-05-24T04:16:28.513Z,5.70
2023-05-24T04:21:39.274Z,5.90
2023-05-24T04:26:48.149Z,9.70
2023-05-24T04:31:56.913Z,6.20
2023-05-24T04:37:06.043Z,5.90
2023-05-24T04:42:14.350Z,6.40
2023-05-24T04:47:22.017Z,5.80
2023-05-24T04:52:29.404Z,7.80
2023-05-24T04:57:37.122Z,6.20
2023-05-24T05:02:44.746Z,6.40
2023-05-24T05:07:52.112Z,7.40
2023-05-24T05:12:59.767Z,6.90
2023-05-24T05:18:07.752Z,5.50
2023-05-24T05:23:15.144Z,6.70
2023-05-24T05:28:22.764Z,7.50
2023-05-24T05:33:30.215Z,7.40
2023-05-24T05:38:37.833Z,6.10
2023-05-24T05:43:46.036Z,7.90
2023-05-24T05:48:53.517Z,5.90
2023-05-24T05:54:00.857Z,7.80
2023-05-24T05:59:08.520Z,5.80
2023-05-24T06:04:16.016Z,6.30
2023-05-24T06:09:23.634Z,7.30
2023-05-24T06:14:32.216Z,5.20
2023-05-24T06:19:39.716Z,6.20
2023-05-24T06:24:46.952Z,5.30
2023-05-24T06:29:54.937Z,5.20
2023-05-24T06:35:02.252Z,5.70
2023-05-24T06:40:12.001Z,5.80
2023-05-24T06:45:19.930Z,6.60
2023-05-24T06:50:27.902Z,5.90
2023-05-24T06:55:36.026Z,7.20
2023-05-24T07:00:46.542Z,5.90
2023-05-24T07:05:54.866Z,6.80
2023-05-24T07:11:02.791Z,5.20
2023-05-24T07:16:12.216Z,5.80
2023-05-24T07:21:19.695Z,8.40
2023-05-24T07:26:27.214Z,6.90
2023-05-24T07:31:35.863Z,7.80
2023-05-24T07:36:43.327Z,9.40
2023-05-24T07:41:51.618Z,5.10
2023-05-24T07:46:59.356Z,8.50
2023-05-24T07:52:07.506Z,6.00
2023-05-24T07:57:15.488Z,5.30
2023-05-24T08:03:28.337Z,5.80
2023-05-24T08:08:36.133Z,8.30
2023-05-24T08:13:43.748Z,10.90
2023-05-24T08:18:53.374Z,5.00
2023-05-24T08:29:09.073Z,7.40
2023-05-24T08:34:16.609Z,4.70
2023-05-24T08:39:24.493Z,7.00
2023-05-24T08:44:34.187Z,4.80
2023-05-24T08:49:43.910Z,4.20
2023-05-24T08:54:54.033Z,7.40
2023-05-24T09:00:01.558Z,5.40
2023-05-24T09:05:11.995Z,5.50
2023-05-24T09:10:21.353Z,5.60
2023-05-24T09:15:29.256Z,4.20
2023-05-24T09:20:37.365Z,6.00
2023-05-24T09:25:48.390Z,9.80
2023-05-24T09:31:07.312Z,5.10
2023-05-24T09:36:20.827Z,5.30
2023-05-24T09:41:29.115Z,3.80
2023-05-24T09:46:40.444Z,5.00
2023-05-24T09:52:36.120Z,6.30
2023-05-24T09:57:45.473Z,4.60
2023-05-24T10:03:05.690Z,6.50
2023-05-24T10:08:14.811Z,5.30
2023-05-24T10:13:24.545Z,5.90
2023-05-24T10:18:33.340Z,4.90
2023-05-24T10:23:46.206Z,5.10
2023-05-24T10:28:57.859Z,4.50
2023-05-24T10:34:09.051Z,5.40
2023-05-24T10:39:22.522Z,4.60
2023-05-24T10:44:34.061Z,4.80
2023-05-24T10:49:51.689Z,5.00
2023-05-24T10:55:10.303Z,5.30
2023-05-24T11:00:36.302Z,7.10
2023-05-24T11:05:56.219Z,4.70
2023-05-24T11:16:39.379Z,5.00
2023-05-24T11:21:49.131Z,4.80
2023-05-24T11:26:57.525Z,5.40
2023-05-24T11:32:06.144Z,5.40
2023-05-24T11:37:16.820Z,6.40
2023-05-24T11:42:25.941Z,4.80
2023-05-24T11:47:37.633Z,4.40
2023-05-24T11:52:46.017Z,5.30
2023-05-24T11:57:59.973Z,4.40
2023-05-24T12:03:10.034Z,4.60
2023-05-24T12:08:18.086Z,5.10
2023-05-24T12:13:27.823Z,4.20
2023-05-24T12:18:36.603Z,3.50
2023-05-24T12:23:44.033Z,5.40
2023-05-24T12:28:57.483Z,5.00
2023-05-24T12:34:06.142Z,4.30
2023-05-24T12:39:32.131Z,4.20
2023-05-24T12:44:42.321Z,6.10
2023-05-24T12:49:50.580Z,5.10
2023-05-24T12:54:58.587Z,5.30
2023-05-24T13:00:07.731Z,4.60
2023-05-24T13:05:16.038Z,4.10
2023-05-24T13:10:24.043Z,4.30
2023-05-24T13:15:31.632Z,6.30
2023-05-24T13:20:40.206Z,4.60
2023-05-24T13:25:48.411Z,5.30
2023-05-24T13:30:56.460Z,3.70
2023-05-24T13:36:04.278Z,3.80
2023-05-24T13:41:12.124Z,5.40
2023-05-24T13:46:20.085Z,3.20
2023-05-24T13:51:28.263Z,5.00
2023-05-24T13:56:35.988Z,5.20
2023-05-24T14:01:45.692Z,7.00
2023-05-24T14:06:53.810Z,5.80
2023-05-24T14:12:02.795Z,4.30
2023-05-24T14:17:11.932Z,6.90
2023-05-24T14:22:20.670Z,5.40
2023-05-24T14:27:28.553Z,5.10
2023-05-24T14:32:36.888Z,5.40
2023-05-24T14:37:45.104Z,8.80
2023-05-24T14:42:52.665Z,5.50
2023-05-24T14:48:01.601Z,5.00
2023-05-24T14:53:12.839Z,5.90
2023-05-24T14:58:20.944Z,4.40
2023-05-24T15:03:29.702Z,7.80
2023-05-24T15:08:38.242Z,4.10
2023-05-24T15:13:46.987Z,4.20
2023-05-24T15:18:56.412Z,4.60
2023-05-24T15:24:04.352Z,4.70
2023-05-24T15:29:12.870Z,7.60
2023-05-24T15:34:22.181Z,3.70
2023-05-24T15:44:38.702Z,4.20
2023-05-24T15:49:47.877Z,7.20
2023-05-24T15:54:56.162Z,4.10
2023-05-24T16:00:04.468Z,4.00
2023-05-24T16:05:21.291Z,7.40
2023-05-24T16:10:30.211Z,6.80
2023-05-24T16:15:41.843Z,5.40
2023-05-24T16:20:51.548Z,6.10
2023-05-24T16:25:59.626Z,7.40
2023-05-24T16:31:08.425Z,4.80
2023-05-24T16:36:17.217Z,5.00
2023-05-24T16:41:26.220Z,4.30
2023-05-24T16:46:35.504Z,5.10
2023-05-24T16:51:44.019Z,5.40
2023-05-24T16:56:55.345Z,4.60
2023-05-24T17:02:02.860Z,5.60
2023-05-24T17:07:12.178Z,5.00
2023-05-24T17:12:21.692Z,4.90
2023-05-24T17:17:29.577Z,4.10
2023-05-24T17:22:37.561Z,4.60
2023-05-24T17:27:45.741Z,5.40
2023-05-24T17:32:54.201Z,7.40
2023-05-24T17:38:02.651Z,6.70
2023-05-24T17:43:11.152Z,5.50
2023-05-24T17:48:18.613Z,5.40
2023-05-24T17:53:31.725Z,6.70
2023-05-24T17:58:41.974Z,5.80
2023-05-24T18:03:49.818Z,6.80
2023-05-24T18:08:58.632Z,6.20
2023-05-24T18:14:07.106Z,7.30
2023-05-24T18:19:15.384Z,4.60
2023-05-24T18:24:23.835Z,6.20
2023-05-24T18:29:32.659Z,7.80
2023-05-24T18:34:40.945Z,7.70
2023-05-24T18:39:48.506Z,7.70
2023-05-24T18:44:57.451Z,6.90
2023-05-24T18:50:05.961Z,7.10
2023-05-24T18:55:14.708Z,8.30
2023-05-24T19:00:23.961Z,5.00
2023-05-24T19:05:31.734Z,7.90
2023-05-24T19:10:39.718Z,7.00
2023-05-24T19:15:47.743Z,9.90
2023-05-24T19:20:55.597Z,13.10
2023-05-24T19:26:03.147Z,20.10
2023-05-24T19:31:11.867Z,17.40
2023-05-24T19:36:21.604Z,16.30
2023-05-24T19:41:29.438Z,28.40
2023-05-24T19:46:37.726Z,19.40
2023-05-24T19:51:45.850Z,6.30
2023-05-24T19:56:56.007Z,7.90
2023-05-24T20:02:03.902Z,7.00
2023-05-24T20:07:12.034Z,12.60
2023-05-24T20:12:20.005Z,14.40
2023-05-24T20:17:27.550Z,20.60
2023-05-24T20:22:35.423Z,22.40
2023-05-24T20:27:44.923Z,11.80
2023-05-24T20:32:53.359Z,12.20
2023-05-24T20:38:02.015Z,20.30
2023-05-24T20:43:10.762Z,11.60
2023-05-24T20:48:18.784Z,11.30
2023-05-24T20:53:27.152Z,13.20
2023-05-24T20:58:36.314Z,13.20
2023-05-24T21:03:45.119Z,13.90
2023-05-24T21:08:53.159Z,11.40
2023-05-24T21:14:02.281Z,9.50
2023-05-24T21:19:10.818Z,7.90
2023-05-24T21:24:19.820Z,6.70
2023-05-24T21:29:27.600Z,10.30
2023-05-24T21:34:37.647Z,8.60
2023-05-24T21:39:46.156Z,7.90
2023-05-24T21:44:55.014Z,7.10
2023-05-24T21:50:03.525Z,8.10
2023-05-24T21:55:12.758Z,11.70
2023-05-24T22:00:22.308Z,10.90
2023-05-24T22:05:31.579Z,8.80
2023-05-24T22:10:39.971Z,12.10
2023-05-24T22:15:48.571Z,11.80
2023-05-24T22:20:59.031Z,10.60
2023-05-24T22:26:08.013Z,8.90
2023-05-24T22:31:16.879Z,10.70
2023-05-24T22:36:26.368Z,8.00
2023-05-24T22:41:35.132Z,8.90
2023-05-24T22:46:43.796Z,10.40
2023-05-24T22:51:54.251Z,8.90
2023-05-24T22:57:02.967Z,9.90
2023-05-24T23:02:11.232Z,9.30
2023-05-24T23:07:22.418Z,10.30
2023-05-24T23:12:30.768Z,8.70
2023-05-24T23:17:40.497Z,12.40
2023-05-24T23:22:49.011Z,14.30
2023-05-24T23:27:57.266Z,8.00
2023-05-24T23:33:05.960Z,9.30
2023-05-24T23:38:15.823Z,7.60
2023-05-24T23:43:24.598Z,7.60
2023-05-24T23:48:32.443Z,8.10
2023-05-24T23:53:41.569Z,9.60
2023-05-24T23:58:50.476Z,9.10
